createdAt,value
2019-02-05T00:00:37.715Z,135.10
2019-02-05T00:03:08.849Z,164.27
2019-02-05T00:05:37.529Z,139.70
2019-02-05T00:08:06.279Z,104.33
2019-02-05T00:10:34.958Z,94.13
2019-02-05T00:13:03.849Z,74.63
2019-02-05T00:15:32.981Z,73.83
2019-02-05T00:18:01.735Z,65.30
2019-02-05T00:20:30.419Z,73.83
2019-02-05T00:22:59.283Z,63.83
2019-02-05T00:25:28.007Z,70.77
2019-02-05T00:27:56.738Z,89.87
2019-02-05T00:30:26.078Z,94.40
2019-02-05T00:32:54.804Z,91.53
2019-02-05T00:35:23.527Z,86.50
2019-02-05T00:37:52.510Z,89.70
2019-02-05T00:40:21.356Z,115.03
2019-02-05T00:42:50.093Z,114.33
2019-02-05T00:45:20.115Z,111.77
2019-02-05T00:47:49.746Z,113.97
2019-02-05T00:50:19.577Z,111.13
2019-02-05T00:52:48.525Z,115.33
2019-02-05T00:55:20.636Z,107.13
2019-02-05T00:57:49.366Z,99.33
2019-02-05T01:00:27.370Z,100.90
2019-02-05T01:02:56.195Z,103.37
2019-02-05T01:05:25.030Z,96.90
2019-02-05T01:07:53.907Z,103.27
2019-02-05T01:10:24.445Z,100.70
2019-02-05T01:12:53.959Z,102.27
2019-02-05T01:15:24.921Z,105.93
2019-02-05T01:17:53.955Z,94.60
2019-02-05T01:20:23.536Z,94.27
2019-02-05T01:22:52.567Z,91.53
2019-02-05T01:25:22.530Z,105.27
2019-02-05T01:27:51.535Z,109.07
2019-02-05T01:30:25.208Z,99.73
2019-02-05T01:32:53.942Z,105.70
2019-02-05T01:35:23.275Z,100.50
2019-02-05T01:37:52.883Z,94.93
2019-02-05T01:40:26.157Z,102.77
2019-02-05T01:42:55.182Z,101.67
2019-02-05T01:45:24.870Z,98.80
2019-02-05T01:47:53.615Z,103.47
2019-02-05T01:50:26.844Z,89.10
2019-02-05T01:52:55.987Z,89.17
2019-02-05T01:55:24.891Z,98.03
2019-02-05T01:57:53.724Z,90.07
2019-02-05T02:00:24.922Z,103.63
2019-02-05T02:02:53.665Z,103.23
2019-02-05T02:05:22.399Z,113.20
2019-02-05T02:07:51.393Z,115.97
2019-02-05T02:10:23.157Z,116.90
2019-02-05T02:12:52.194Z,126.13
2019-02-05T02:15:21.074Z,111.37
2019-02-05T02:17:50.104Z,130.03
2019-02-05T02:20:20.410Z,115.00
2019-02-05T02:22:49.825Z,126.27
2019-02-05T02:25:18.962Z,124.00
2019-02-05T02:27:48.900Z,116.40
2019-02-05T02:30:23.851Z,126.23
2019-02-05T02:32:52.603Z,100.40
2019-02-05T02:35:21.322Z,101.67
2019-02-05T02:37:50.768Z,120.20
2019-02-05T02:40:19.511Z,144.70
2019-02-05T02:42:48.343Z,184.10
2019-02-05T02:45:17.749Z,276.60
2019-02-05T02:47:46.585Z,164.73
2019-02-05T02:50:19.709Z,131.23
2019-02-05T02:52:49.250Z,126.53
2019-02-05T02:55:17.983Z,139.43
2019-02-05T02:57:46.808Z,106.73
2019-02-05T03:00:23.034Z,110.20
2019-02-05T03:06:32.823Z,106.47
2019-02-05T03:09:01.634Z,111.97
2019-02-05T03:11:30.535Z,100.33
2019-02-05T03:13:59.275Z,105.80
2019-02-05T03:16:28.024Z,121.23
2019-02-05T03:18:56.977Z,117.70
2019-02-05T03:21:25.720Z,124.33
2019-02-05T03:23:54.458Z,132.33
2019-02-05T03:26:23.608Z,120.03
2019-02-05T03:28:52.339Z,118.83
2019-02-05T03:31:21.068Z,119.07
2019-02-05T03:33:49.847Z,106.10
2019-02-05T03:36:18.575Z,87.70
2019-02-05T03:38:47.313Z,97.80
2019-02-05T03:41:16.184Z,124.70
2019-02-05T03:43:45.401Z,115.43
2019-02-05T03:46:14.938Z,126.47
2019-02-05T03:48:44.517Z,123.20
2019-02-05T03:51:34.208Z,111.30
2019-02-05T03:54:08.617Z,104.07
2019-02-05T03:57:10.416Z,125.80
2019-02-05T03:59:51.050Z,99.87
2019-02-05T04:02:38.098Z,106.23
2019-02-05T04:05:24.950Z,99.73
2019-02-05T04:07:59.138Z,106.27
2019-02-05T04:10:42.833Z,110.97
2019-02-05T04:13:29.382Z,114.80
2019-02-05T04:16:23.765Z,107.87
2019-02-05T04:19:13.659Z,111.30
2019-02-05T04:21:48.096Z,105.77
2019-02-05T04:24:25.494Z,104.43
2019-02-05T04:27:12.035Z,112.63
2019-02-05T04:30:04.859Z,125.63
2019-02-05T04:32:39.581Z,131.87
2019-02-05T04:35:29.311Z,120.00
2019-02-05T04:38:18.521Z,119.90
2019-02-05T04:41:17.243Z,128.00
2019-02-05T04:43:51.554Z,131.33
2019-02-05T04:46:28.795Z,135.63
2019-02-05T04:49:24.665Z,138.77
2019-02-05T04:52:02.029Z,166.57
2019-02-05T04:54:36.754Z,160.47
2019-02-05T04:57:30.555Z,180.47
2019-02-05T05:00:34.127Z,185.33
2019-02-05T05:03:05.776Z,180.53
2019-02-05T05:05:49.275Z,212.00
2019-02-05T05:08:54.076Z,176.03
2019-02-05T05:11:25.591Z,146.87
2019-02-05T05:13:54.332Z,137.07
2019-02-05T05:16:23.071Z,137.93
2019-02-05T05:18:51.883Z,149.90
2019-02-05T05:21:20.833Z,165.47
2019-02-05T05:23:50.043Z,135.93
2019-02-05T05:26:19.187Z,148.30
2019-02-05T05:28:48.121Z,129.83
2019-02-05T05:31:16.871Z,135.00
2019-02-05T05:33:45.764Z,122.13
2019-02-05T05:36:14.602Z,129.33
2019-02-05T05:38:43.353Z,125.80
2019-02-05T05:41:12.183Z,103.40
2019-02-05T05:43:40.946Z,123.47
2019-02-05T05:46:18.399Z,112.73
2019-02-05T05:48:47.129Z,99.20
2019-02-05T05:51:15.855Z,113.80
2019-02-05T05:53:44.931Z,107.70
2019-02-05T05:56:13.703Z,124.00
2019-02-05T05:58:42.438Z,121.53
2019-02-05T06:01:11.211Z,120.77
2019-02-05T06:03:39.950Z,105.70
2019-02-05T06:06:08.680Z,121.63
2019-02-05T06:08:37.486Z,119.50
2019-02-05T06:11:06.220Z,114.40
2019-02-05T06:13:35.019Z,136.37
2019-02-05T06:16:04.401Z,182.90
2019-02-05T06:18:33.146Z,336.93
2019-02-05T06:21:01.884Z,305.50
2019-02-05T06:23:30.863Z,486.10
2019-02-05T06:25:59.611Z,467.63
2019-02-05T06:28:34.664Z,315.43
2019-02-05T06:30:59.435Z,275.93
2019-02-05T06:33:28.176Z,216.43
2019-02-05T06:35:56.917Z,213.97
2019-02-05T06:38:27.277Z,245.10
2019-02-05T06:40:56.015Z,235.93
2019-02-05T06:43:24.765Z,225.30
2019-02-05T06:45:53.747Z,222.87
2019-02-05T06:48:22.471Z,167.43
2019-02-05T06:50:51.208Z,174.40
2019-02-05T06:53:19.994Z,153.07
2019-02-05T06:55:48.717Z,120.27
2019-02-05T06:58:17.503Z,113.33
2019-02-05T07:00:46.710Z,104.00
2019-02-05T07:03:15.830Z,86.77
2019-02-05T07:05:44.560Z,76.43
2019-02-05T07:08:13.423Z,64.50
2019-02-05T07:10:42.150Z,58.27
2019-02-05T07:13:10.884Z,56.37
2019-02-05T07:15:39.658Z,57.33
2019-02-05T07:18:08.387Z,48.60
2019-02-05T07:20:37.391Z,46.37
2019-02-05T07:23:07.040Z,48.27
2019-02-05T07:25:35.782Z,47.13
2019-02-05T07:28:04.620Z,51.40
2019-02-05T07:30:33.594Z,53.83
2019-02-05T07:33:02.325Z,48.97
2019-02-05T07:35:31.067Z,44.37
2019-02-05T07:38:00.154Z,43.13
2019-02-05T07:40:28.885Z,52.03
2019-02-05T07:42:59.113Z,56.30
2019-02-05T07:45:27.997Z,49.03
2019-02-05T07:47:56.727Z,50.33
2019-02-05T07:50:27.062Z,41.70
2019-02-05T07:52:56.059Z,44.40
2019-02-05T07:55:25.269Z,47.27
2019-02-05T07:57:54.002Z,43.10
2019-02-05T08:00:25.690Z,37.73
2019-02-05T08:02:54.416Z,38.90
2019-02-05T08:05:31.581Z,40.90
2019-02-05T08:08:01.116Z,46.97
2019-02-05T08:10:30.221Z,44.03
2019-02-05T08:12:59.462Z,36.37
2019-02-05T08:15:33.230Z,46.97
2019-02-05T08:18:01.987Z,54.37
2019-02-05T08:20:30.944Z,52.03
2019-02-05T08:22:59.782Z,46.23
2019-02-05T08:25:28.522Z,48.37
2019-02-05T08:27:57.293Z,48.57
2019-02-05T08:30:40.736Z,50.00
2019-02-05T08:33:09.727Z,52.13
2019-02-05T08:35:38.568Z,50.63
2019-02-05T08:38:07.293Z,45.77
2019-02-05T08:40:36.511Z,51.40
2019-02-05T08:43:05.916Z,50.57
2019-02-05T08:45:36.877Z,51.97
2019-02-05T08:48:08.472Z,46.73
2019-02-05T08:50:37.394Z,72.70
2019-02-05T08:53:06.226Z,48.43
2019-02-05T08:55:35.121Z,47.13
2019-02-05T08:58:06.955Z,43.47
2019-02-05T09:00:37.779Z,48.90
2019-02-05T09:03:09.189Z,44.77
2019-02-05T09:05:38.139Z,44.13
2019-02-05T09:08:07.071Z,76.60
2019-02-05T09:10:37.697Z,41.63
2019-02-05T09:13:06.552Z,38.67
2019-02-05T09:15:35.268Z,40.50
2019-02-05T09:18:04.247Z,42.40
2019-02-05T09:20:32.982Z,40.60
2019-02-05T09:23:01.915Z,51.27
2019-02-05T09:25:30.780Z,45.33
2019-02-05T09:27:59.514Z,45.37
2019-02-05T09:30:33.678Z,41.70
2019-02-05T09:33:05.083Z,42.57
2019-02-05T09:35:33.818Z,45.60
2019-02-05T09:38:02.542Z,51.80
2019-02-05T09:40:33.307Z,43.00
2019-02-05T09:43:04.327Z,41.43
2019-02-05T09:45:33.730Z,40.53
2019-02-05T09:48:04.317Z,38.57
2019-02-05T09:50:44.202Z,36.77
2019-02-05T09:53:03.494Z,37.13
2019-02-05T09:55:32.260Z,37.87
2019-02-05T09:58:00.988Z,38.73
2019-02-05T10:00:35.310Z,46.83
2019-02-05T10:03:04.374Z,39.87
2019-02-05T10:05:34.754Z,34.10
2019-02-05T10:08:03.487Z,37.17
2019-02-05T10:10:32.302Z,35.87
2019-02-05T10:13:01.086Z,40.47
2019-02-05T10:15:32.434Z,41.00
2019-02-05T10:18:01.633Z,36.97
2019-02-05T10:20:30.572Z,40.17
2019-02-05T10:23:01.728Z,39.67
2019-02-05T10:25:30.814Z,35.50
2019-02-05T10:28:04.361Z,35.57
2019-02-05T10:30:38.184Z,35.53
2019-02-05T10:33:07.687Z,45.07
2019-02-05T10:35:36.576Z,33.80
2019-02-05T10:38:06.556Z,38.00
2019-02-05T10:40:35.236Z,35.10
2019-02-05T10:43:04.642Z,33.23
2019-02-05T10:45:34.960Z,37.80
2019-02-05T10:48:04.832Z,36.53
2019-02-05T10:50:34.798Z,38.67
2019-02-05T10:53:03.551Z,29.93
2019-02-05T10:55:32.227Z,34.77
2019-02-05T10:58:00.910Z,33.57
2019-02-05T11:00:33.104Z,34.27
2019-02-05T11:03:08.594Z,30.57
2019-02-05T11:05:37.651Z,35.97
2019-02-05T11:08:06.450Z,34.20
2019-02-05T11:10:35.246Z,42.17
2019-02-05T11:13:05.191Z,38.50
2019-02-05T11:15:33.982Z,32.33
2019-02-05T11:18:04.920Z,31.77
2019-02-05T11:20:33.772Z,37.07
2019-02-05T11:23:02.464Z,32.27
2019-02-05T11:25:31.353Z,36.13
2019-02-05T11:28:00.143Z,32.30
2019-02-05T11:33:18.262Z,36.17
2019-02-05T11:35:46.949Z,32.30
2019-02-05T11:38:15.736Z,35.50
2019-02-05T11:40:44.533Z,36.23
2019-02-05T11:43:13.227Z,38.10
2019-02-05T11:45:41.936Z,37.00
2019-02-05T11:48:13.991Z,32.27
2019-02-05T11:50:42.878Z,31.67
2019-02-05T11:53:11.570Z,32.73
2019-02-05T11:55:40.519Z,31.90
2019-02-05T11:58:09.208Z,32.47
2019-02-05T12:00:39.470Z,30.90
2019-02-05T12:03:09.830Z,28.00
2019-02-05T12:05:38.904Z,29.27
2019-02-05T12:08:07.799Z,30.20
2019-02-05T12:10:36.562Z,26.63
2019-02-05T12:13:05.352Z,27.30
2019-02-05T12:15:34.033Z,27.07
2019-02-05T12:18:02.777Z,26.20
2019-02-05T12:20:31.463Z,25.57
2019-02-05T12:23:00.427Z,25.80
2019-02-05T12:25:29.271Z,28.07
2019-02-05T12:27:58.061Z,23.63
2019-02-05T12:30:43.878Z,29.13
2019-02-05T12:33:02.400Z,27.57
2019-02-05T12:35:31.082Z,20.70
2019-02-05T12:37:59.768Z,21.17
2019-02-05T12:40:28.961Z,21.03
2019-02-05T12:42:57.859Z,18.53
2019-02-05T12:45:29.250Z,17.57
2019-02-05T12:47:57.982Z,19.97
2019-02-05T12:50:34.972Z,21.03
2019-02-05T12:53:04.466Z,16.47
2019-02-05T12:55:33.179Z,20.37
2019-02-05T12:58:01.869Z,20.67
2019-02-05T13:00:33.467Z,16.13
2019-02-05T13:03:02.768Z,19.90
2019-02-05T13:05:31.561Z,18.53
2019-02-05T13:08:00.588Z,21.33
2019-02-05T13:10:41.109Z,15.80
2019-02-05T13:13:10.231Z,18.50
2019-02-05T13:15:38.915Z,17.00
2019-02-05T13:18:07.802Z,20.73
2019-02-05T13:20:37.527Z,15.00
2019-02-05T13:23:07.116Z,15.33
2019-02-05T13:25:36.106Z,14.20
2019-02-05T13:28:07.254Z,17.90
2019-02-05T13:30:37.344Z,20.97
2019-02-05T13:33:08.144Z,16.07
2019-02-05T13:35:37.706Z,20.43
2019-02-05T13:38:06.809Z,16.47
2019-02-05T13:40:35.479Z,21.13
2019-02-05T13:43:05.425Z,18.50
2019-02-05T13:45:36.755Z,18.37
2019-02-05T13:48:07.057Z,18.63
2019-02-05T13:50:35.912Z,16.03
2019-02-05T13:53:05.508Z,17.90
2019-02-05T13:55:37.312Z,17.17
2019-02-05T13:58:06.551Z,17.43
2019-02-05T14:00:44.190Z,19.43
2019-02-05T14:03:13.343Z,17.90
2019-02-05T14:05:42.239Z,18.97
2019-02-05T14:08:10.921Z,18.20
2019-02-05T14:10:42.076Z,19.30
2019-02-05T14:13:10.775Z,16.40
2019-02-05T14:15:42.269Z,18.23
2019-02-05T14:18:11.428Z,20.13
2019-02-05T14:20:40.219Z,28.83
2019-02-05T14:23:08.913Z,20.13
2019-02-05T14:25:37.822Z,20.73
2019-02-05T14:28:06.717Z,19.83
2019-02-05T14:30:44.087Z,23.00
2019-02-05T14:33:12.849Z,23.43
2019-02-05T14:35:41.637Z,25.70
2019-02-05T14:38:10.671Z,18.03
2019-02-05T14:40:39.371Z,16.53
2019-02-05T14:43:08.156Z,21.13
2019-02-05T14:45:37.305Z,16.90
2019-02-05T14:48:06.999Z,20.33
2019-02-05T14:50:38.388Z,18.27
2019-02-05T14:53:08.440Z,22.80
2019-02-05T14:55:37.236Z,23.23
2019-02-05T14:58:08.223Z,19.20
2019-02-05T15:00:38.073Z,18.47
2019-02-05T15:03:12.060Z,25.57
2019-02-05T15:05:41.051Z,29.13
2019-02-05T15:08:10.487Z,24.90
2019-02-05T15:10:39.277Z,25.10
2019-02-05T15:13:08.576Z,23.13
2019-02-05T15:15:37.356Z,24.83
2019-02-05T15:18:07.488Z,28.67
2019-02-05T15:20:41.519Z,25.53
2019-02-05T15:23:10.542Z,26.50
2019-02-05T15:25:39.232Z,25.67
2019-02-05T15:28:08.406Z,35.60
2019-02-05T15:30:42.379Z,41.57
2019-02-05T15:33:32.376Z,40.37
2019-02-05T15:36:02.889Z,33.57
2019-02-05T15:38:31.847Z,28.43
2019-02-05T15:41:00.538Z,32.10
2019-02-05T15:43:29.690Z,34.17
2019-02-05T15:45:58.377Z,36.73
2019-02-05T15:48:28.546Z,64.27
2019-02-05T15:50:57.430Z,33.47
2019-02-05T15:53:26.401Z,38.37
2019-02-05T15:55:55.295Z,32.00
2019-02-05T15:58:24.471Z,33.03
2019-02-05T16:00:53.281Z,24.37
2019-02-05T16:03:21.948Z,21.97
2019-02-05T16:05:50.673Z,22.27
2019-02-05T16:08:22.383Z,25.90
2019-02-05T16:10:51.073Z,38.00
2019-02-05T16:13:19.916Z,122.07
2019-02-05T16:15:48.597Z,64.60
2019-02-05T16:18:17.312Z,41.97
2019-02-05T16:20:46.028Z,24.70
2019-02-05T16:23:14.810Z,33.00
2019-02-05T16:25:43.501Z,28.53
2019-02-05T16:28:12.332Z,30.67
2019-02-05T16:30:41.009Z,30.70
2019-02-05T16:33:09.810Z,28.17
2019-02-05T16:35:38.627Z,43.83
2019-02-05T16:38:07.315Z,32.00
2019-02-05T16:40:38.516Z,28.30
2019-02-05T16:43:07.518Z,35.13
2019-02-05T16:45:36.308Z,33.13
2019-02-05T16:48:05.403Z,153.07
2019-02-05T16:50:40.358Z,45.13
2019-02-05T16:53:09.841Z,49.43
2019-02-05T16:55:38.626Z,40.40
2019-02-05T16:58:07.869Z,40.17
2019-02-05T17:00:37.854Z,35.10
2019-02-05T17:03:07.647Z,40.40
2019-02-05T17:05:41.720Z,40.20
2019-02-05T17:08:10.789Z,43.30
2019-02-05T17:10:39.474Z,37.23
2019-02-05T17:13:08.218Z,39.17
2019-02-05T17:15:36.902Z,30.53
2019-02-05T17:18:06.543Z,36.67
2019-02-05T17:20:35.752Z,29.07
2019-02-05T17:23:05.521Z,32.40
2019-02-05T17:25:36.098Z,25.07
2019-02-05T17:28:06.365Z,38.27
2019-02-05T17:30:37.450Z,28.50
2019-02-05T17:33:06.547Z,25.80
2019-02-05T17:35:35.968Z,27.80
2019-02-05T17:38:06.950Z,27.83
2019-02-05T17:40:35.831Z,24.67
2019-02-05T17:43:04.876Z,31.33
2019-02-05T17:45:38.834Z,26.73
2019-02-05T17:48:10.634Z,22.33
2019-02-05T17:50:39.324Z,105.43
2019-02-05T17:53:08.006Z,19.17
2019-02-05T17:55:36.845Z,18.57
2019-02-05T17:58:06.446Z,18.10
2019-02-05T18:00:52.311Z,17.43
2019-02-05T18:03:21.285Z,17.67
2019-02-05T18:05:49.980Z,21.50
2019-02-05T18:08:18.707Z,18.70
2019-02-05T18:10:47.398Z,18.60
2019-02-05T18:13:16.087Z,22.17
2019-02-05T18:15:45.125Z,16.37
2019-02-05T18:18:14.096Z,17.60
2019-02-05T18:20:43.463Z,14.03
2019-02-05T18:23:12.284Z,16.40
2019-02-05T18:25:40.975Z,14.73
2019-02-05T18:28:09.656Z,16.23
2019-02-05T18:30:39.498Z,17.50
2019-02-05T18:33:08.209Z,19.80
2019-02-05T18:35:36.901Z,23.43
2019-02-05T18:38:09.105Z,14.90
2019-02-05T18:40:37.621Z,20.10
2019-02-05T18:43:06.629Z,18.20
2019-02-05T18:45:35.766Z,18.87
2019-02-05T18:48:05.162Z,16.70
2019-02-05T18:50:33.773Z,15.80
2019-02-05T18:53:02.601Z,14.60
2019-02-05T18:55:34.373Z,16.63
2019-02-05T18:58:09.562Z,16.67
2019-02-05T19:00:38.630Z,15.47
2019-02-05T19:03:14.992Z,14.20
2019-02-05T19:05:37.612Z,16.40
2019-02-05T19:08:06.877Z,14.63
2019-02-05T19:10:35.764Z,13.13
2019-02-05T19:13:04.858Z,15.37
2019-02-05T19:15:36.105Z,17.00
2019-02-05T19:18:05.970Z,13.30
2019-02-05T19:20:34.661Z,15.10
2019-02-05T19:23:04.818Z,15.70
2019-02-05T19:25:51.444Z,14.27
2019-02-05T19:28:24.581Z,13.53
2019-02-05T19:30:54.855Z,13.90
2019-02-05T19:33:27.304Z,14.00
2019-02-05T19:35:54.004Z,15.23
2019-02-05T19:38:22.704Z,14.37
2019-02-05T19:40:57.618Z,14.70
2019-02-05T19:43:23.342Z,32.60
2019-02-05T19:46:06.169Z,60.17
2019-02-05T19:48:36.441Z,74.20
2019-02-05T19:51:05.508Z,123.30
2019-02-05T19:56:38.087Z,173.27
2019-02-05T19:59:04.481Z,124.63
2019-02-05T20:01:33.169Z,76.47
2019-02-05T20:04:02.096Z,49.97
2019-02-05T20:06:30.794Z,96.03
2019-02-05T20:08:59.673Z,131.10
2019-02-05T20:11:28.504Z,85.27
2019-02-05T20:13:57.191Z,71.70
2019-02-05T20:16:35.701Z,49.60
2019-02-05T20:19:04.491Z,40.60
2019-02-05T20:21:42.456Z,34.00
2019-02-05T20:24:28.898Z,42.30
2019-02-05T20:26:57.633Z,53.47
2019-02-05T20:29:26.370Z,68.40
2019-02-05T20:31:55.099Z,64.93
2019-02-05T20:34:24.346Z,70.90
2019-02-05T20:36:53.082Z,76.60
2019-02-05T20:39:38.285Z,97.47
2019-02-05T20:42:07.095Z,116.37
2019-02-05T20:44:35.825Z,129.70
2019-02-05T20:47:05.029Z,98.90
2019-02-05T20:49:33.830Z,86.07
2019-02-05T20:52:02.554Z,73.33
2019-02-05T20:54:31.287Z,59.17
2019-02-05T20:57:00.133Z,67.07
2019-02-05T20:59:30.372Z,67.40
2019-02-05T21:01:59.268Z,94.23
2019-02-05T21:04:28.473Z,105.93
2019-02-05T21:06:59.671Z,113.00
2019-02-05T21:09:27.684Z,95.43
2019-02-05T21:11:56.650Z,89.60
2019-02-05T21:14:25.368Z,84.40
2019-02-05T21:16:54.106Z,86.07
2019-02-05T21:19:23.276Z,80.63
2019-02-05T21:21:52.470Z,57.17
2019-02-05T21:24:21.195Z,52.20
2019-02-05T21:26:49.974Z,46.83
2019-02-05T21:29:18.738Z,43.63
2019-02-05T21:31:47.474Z,51.63
2019-02-05T21:34:16.399Z,52.00
2019-02-05T21:36:45.079Z,53.47
2019-02-05T21:39:13.806Z,55.00
2019-02-05T21:41:42.708Z,58.80
2019-02-05T21:44:11.433Z,51.53
2019-02-05T21:46:40.169Z,47.33
2019-02-05T21:49:08.964Z,51.60
2019-02-05T21:51:40.882Z,47.10
2019-02-05T21:54:08.247Z,42.67
2019-02-05T21:56:37.012Z,39.00
2019-02-05T21:59:05.741Z,46.37
2019-02-05T22:01:34.505Z,39.10
2019-02-05T22:04:03.695Z,39.10
2019-02-05T22:06:32.932Z,30.77
2019-02-05T22:09:01.725Z,37.43
2019-02-05T22:11:30.888Z,43.40
2019-02-05T22:13:59.605Z,40.60
2019-02-05T22:16:28.330Z,41.43
2019-02-05T22:18:57.100Z,38.23
2019-02-05T22:21:25.903Z,37.43
2019-02-05T22:23:54.627Z,35.80
2019-02-05T22:26:23.809Z,37.97
2019-02-05T22:28:53.889Z,39.80
2019-02-05T22:31:22.757Z,39.40
2019-02-05T22:33:51.522Z,36.83
2019-02-05T22:36:20.253Z,29.77
2019-02-05T22:38:48.980Z,26.63
2019-02-05T22:41:18.588Z,27.67
2019-02-05T22:43:47.330Z,23.03
2019-02-05T22:46:16.050Z,24.63
2019-02-05T22:48:45.079Z,24.17
2019-02-05T22:51:13.965Z,21.37
2019-02-05T22:53:42.697Z,21.77
2019-02-05T22:56:11.776Z,23.07
2019-02-05T22:58:40.674Z,22.50
2019-02-05T23:01:18.190Z,24.97
2019-02-05T23:03:50.646Z,25.33
2019-02-05T23:06:34.705Z,22.27
2019-02-05T23:09:24.670Z,21.43
2019-02-05T23:12:05.186Z,18.00
2019-02-05T23:14:33.917Z,18.70
2019-02-05T23:17:03.022Z,18.33
2019-02-05T23:19:32.279Z,20.37
2019-02-05T23:22:01.043Z,21.37
2019-02-05T23:24:29.912Z,20.97
2019-02-05T23:26:59.040Z,23.37
2019-02-05T23:29:27.766Z,20.50
2019-02-05T23:31:56.628Z,23.13
2019-02-05T23:34:25.424Z,20.53
2019-02-05T23:36:54.133Z,15.23
2019-02-05T23:39:22.857Z,17.70
2019-02-05T23:42:00.890Z,17.47
2019-02-05T23:44:29.609Z,20.83
2019-02-05T23:46:58.618Z,18.87
2019-02-05T23:49:27.399Z,15.87
2019-02-05T23:51:56.185Z,17.77
2019-02-05T23:54:24.913Z,16.20
2019-02-05T23:56:53.759Z,17.50
2019-02-05T23:59:22.573Z,19.10
